createdAt,value
2018-07-30T00:00:33.769Z,60.21
2018-07-30T00:01:33.837Z,60.50
2018-07-30T00:02:33.913Z,63.40
2018-07-30T00:03:33.981Z,64.07
2018-07-30T00:04:34.041Z,63.69
2018-07-30T00:05:34.109Z,62.82
2018-07-30T00:06:34.985Z,60.50
2018-07-30T00:07:34.402Z,60.59
2018-07-30T00:08:34.312Z,61.66
2018-07-30T00:09:34.385Z,64.47
2018-07-30T00:10:34.449Z,63.40
2018-07-30T00:11:34.516Z,61.95
2018-07-30T00:12:34.593Z,62.21
2018-07-30T00:13:34.665Z,63.01
2018-07-30T00:14:34.721Z,61.92
2018-07-30T00:15:34.793Z,61.82
2018-07-30T00:16:34.857Z,61.53
2018-07-30T00:17:34.937Z,61.82
2018-07-30T00:18:35.005Z,63.66
2018-07-30T00:19:35.062Z,62.40
2018-07-30T00:20:35.129Z,64.92
2018-07-30T00:21:35.202Z,63.95
2018-07-30T00:22:35.285Z,61.63
2018-07-30T00:23:35.334Z,61.92
2018-07-30T00:24:35.406Z,63.56
2018-07-30T00:25:35.473Z,62.88
2018-07-30T00:26:35.537Z,61.63
2018-07-30T00:27:35.614Z,61.72
2018-07-30T00:28:35.681Z,61.72
2018-07-30T00:29:35.742Z,62.30
2018-07-30T00:30:35.809Z,62.21
2018-07-30T00:31:35.878Z,62.40
2018-07-30T00:32:35.950Z,64.04
2018-07-30T00:33:36.022Z,63.76
2018-07-30T00:34:36.086Z,62.21
2018-07-30T00:35:36.154Z,63.08
2018-07-30T00:36:36.222Z,63.56
2018-07-30T00:37:36.437Z,63.56
2018-07-30T00:38:36.354Z,62.11
2018-07-30T00:39:36.422Z,61.82
2018-07-30T00:40:36.491Z,61.33
2018-07-30T00:41:36.558Z,61.24
2018-07-30T00:42:36.634Z,60.95
2018-07-30T00:43:36.705Z,61.05
2018-07-30T00:44:36.763Z,61.15
2018-07-30T00:45:36.830Z,62.40
2018-07-30T00:46:36.898Z,61.63
2018-07-30T00:47:36.978Z,61.43
2018-07-30T00:48:37.038Z,65.59
2018-07-30T00:49:37.106Z,62.30
2018-07-30T00:50:37.171Z,64.04
2018-07-30T00:51:37.241Z,63.73
2018-07-30T00:52:37.311Z,62.56
2018-07-30T00:53:37.479Z,64.50
2018-07-30T00:54:37.442Z,64.21
2018-07-30T00:55:37.511Z,64.59
2018-07-30T00:56:37.575Z,63.89
2018-07-30T00:57:37.643Z,63.92
2018-07-30T00:58:37.733Z,63.92
2018-07-30T00:59:37.786Z,63.31
2018-07-30T01:00:37.847Z,62.63
2018-07-30T01:01:37.915Z,62.73
2018-07-30T01:02:37.983Z,62.92
2018-07-30T01:03:38.059Z,62.82
2018-07-30T01:04:38.127Z,64.76
2018-07-30T01:05:38.187Z,64.76
2018-07-30T01:06:38.255Z,65.82
2018-07-30T01:07:38.379Z,65.53
2018-07-30T01:08:38.407Z,66.59
2018-07-30T01:09:38.467Z,66.66
2018-07-30T01:10:38.527Z,68.30
2018-07-30T01:11:38.595Z,66.94
2018-07-30T01:12:38.686Z,69.46
2018-07-30T01:13:38.735Z,70.81
2018-07-30T01:14:38.827Z,70.81
2018-07-30T01:15:38.863Z,68.59
2018-07-30T01:16:38.931Z,69.74
2018-07-30T01:17:39.002Z,68.75
2018-07-30T01:18:39.091Z,70.10
2018-07-30T01:19:39.138Z,70.58
2018-07-30T01:20:39.204Z,70.87
2018-07-30T01:21:39.279Z,70.97
2018-07-30T01:22:39.341Z,70.39
2018-07-30T01:23:39.413Z,71.16
2018-07-30T01:24:39.485Z,70.58
2018-07-30T01:25:39.539Z,70.54
2018-07-30T01:26:39.607Z,72.77
2018-07-30T01:27:39.675Z,71.12
2018-07-30T01:28:39.751Z,70.64
2018-07-30T01:29:39.820Z,71.12
2018-07-30T01:30:39.880Z,72.67
2018-07-30T01:31:39.952Z,72.28
2018-07-30T01:32:40.012Z,70.16
2018-07-30T01:33:40.232Z,72.00
2018-07-30T01:34:40.149Z,72.48
2018-07-30T01:35:40.222Z,71.22
2018-07-30T01:36:40.283Z,71.67
2018-07-30T01:37:40.355Z,72.38
2018-07-30T01:38:40.436Z,69.78
2018-07-30T01:39:40.492Z,70.06
2018-07-30T01:40:40.552Z,69.29
2018-07-30T01:41:40.624Z,69.97
2018-07-30T01:42:40.688Z,71.80
2018-07-30T01:43:40.764Z,71.51
2018-07-30T01:44:40.829Z,70.74
2018-07-30T01:45:40.888Z,70.16
2018-07-30T01:46:40.960Z,71.22
2018-07-30T01:47:41.025Z,71.61
2018-07-30T01:48:41.116Z,72.58
2018-07-30T01:49:41.160Z,75.57
2018-07-30T01:50:41.228Z,72.48
2018-07-30T01:51:41.304Z,72.15
2018-07-30T01:52:41.360Z,71.09
2018-07-30T01:53:41.436Z,70.80
2018-07-30T01:54:41.504Z,70.22
2018-07-30T01:55:41.578Z,69.74
2018-07-30T01:56:41.629Z,70.51
2018-07-30T01:57:41.693Z,70.51
2018-07-30T01:58:41.782Z,71.38
2018-07-30T01:59:41.844Z,71.77
2018-07-30T02:00:41.901Z,71.58
2018-07-30T02:01:41.968Z,71.09
2018-07-30T02:02:42.045Z,71.67
2018-07-30T02:03:42.129Z,74.47
2018-07-30T02:04:42.169Z,71.00
2018-07-30T02:05:42.237Z,71.77
2018-07-30T02:06:42.305Z,71.38
2018-07-30T02:07:42.365Z,71.96
2018-07-30T02:08:42.469Z,71.86
2018-07-30T02:09:42.525Z,71.09
2018-07-30T02:10:42.573Z,71.09
2018-07-30T02:11:42.641Z,71.19
2018-07-30T02:12:42.705Z,71.58
2018-07-30T02:13:42.781Z,73.50
2018-07-30T02:14:42.854Z,73.89
2018-07-30T02:15:42.909Z,73.21
2018-07-30T02:16:42.989Z,74.47
2018-07-30T02:17:43.058Z,75.49
2018-07-30T02:18:43.145Z,74.82
2018-07-30T02:19:43.185Z,78.09
2018-07-30T02:20:43.242Z,75.97
2018-07-30T02:21:43.310Z,75.20
2018-07-30T02:22:43.382Z,74.33
2018-07-30T02:23:43.454Z,75.40
2018-07-30T02:24:43.518Z,75.20
2018-07-30T02:25:43.580Z,74.52
2018-07-30T02:26:43.646Z,73.85
2018-07-30T02:27:43.716Z,73.66
2018-07-30T02:28:43.806Z,74.72
2018-07-30T02:29:43.854Z,74.24
2018-07-30T02:30:43.914Z,76.93
2018-07-30T02:31:43.985Z,76.65
2018-07-30T02:32:44.051Z,78.09
2018-07-30T02:33:44.139Z,74.82
2018-07-30T02:34:44.182Z,75.59
2018-07-30T02:35:44.255Z,74.24
2018-07-30T02:36:44.319Z,74.52
2018-07-30T02:37:44.386Z,74.33
2018-07-30T02:38:44.458Z,74.05
2018-07-30T02:39:44.523Z,74.43
2018-07-30T02:40:44.584Z,73.47
2018-07-30T02:41:44.655Z,73.66
2018-07-30T02:42:44.719Z,73.60
2018-07-30T02:43:44.803Z,73.85
2018-07-30T02:44:44.859Z,73.79
2018-07-30T02:45:44.923Z,72.99
2018-07-30T02:46:44.994Z,72.69
2018-07-30T02:47:45.061Z,72.83
2018-07-30T02:48:45.459Z,71.73
2018-07-30T02:49:45.189Z,71.96
2018-07-30T02:50:45.262Z,71.83
2018-07-30T02:51:45.320Z,71.38
2018-07-30T02:52:45.387Z,71.86
2018-07-30T02:53:45.463Z,71.25
2018-07-30T02:54:45.539Z,71.96
2018-07-30T02:55:45.587Z,71.96
2018-07-30T02:56:45.666Z,72.02
2018-07-30T02:57:45.830Z,72.79
2018-07-30T02:58:45.800Z,72.41
2018-07-30T02:59:45.868Z,72.41
2018-07-30T03:00:45.923Z,72.89
2018-07-30T03:01:45.988Z,72.99
2018-07-30T03:02:46.059Z,73.95
2018-07-30T03:03:46.151Z,72.89
2018-07-30T03:04:46.192Z,73.57
2018-07-30T03:05:46.255Z,73.27
2018-07-30T03:06:46.324Z,73.85
2018-07-30T03:07:46.391Z,73.57
2018-07-30T03:08:46.463Z,73.75
2018-07-30T03:09:46.536Z,74.52
2018-07-30T03:10:46.601Z,74.52
2018-07-30T03:11:46.667Z,74.24
2018-07-30T03:12:46.744Z,74.33
2018-07-30T03:13:46.796Z,75.01
2018-07-30T03:14:46.888Z,74.82
2018-07-30T03:15:46.924Z,75.40
2018-07-30T03:16:46.993Z,74.91
2018-07-30T03:17:47.060Z,75.49
2018-07-30T03:18:47.236Z,75.40
2018-07-30T03:19:47.213Z,75.40
2018-07-30T03:20:47.260Z,75.68
2018-07-30T03:21:47.324Z,75.88
2018-07-30T03:22:47.392Z,75.78
2018-07-30T03:23:47.464Z,76.17
2018-07-30T03:24:47.532Z,76.26
2018-07-30T03:25:47.592Z,76.07
2018-07-30T03:26:47.657Z,76.26
2018-07-30T03:27:47.728Z,76.07
2018-07-30T03:28:47.813Z,76.55
2018-07-30T03:29:47.865Z,77.33
2018-07-30T03:30:47.925Z,77.23
2018-07-30T03:31:48.001Z,77.38
2018-07-30T03:32:48.061Z,76.84
2018-07-30T03:33:48.437Z,76.75
2018-07-30T03:34:48.193Z,77.42
2018-07-30T03:35:48.261Z,78.63
2018-07-30T03:36:48.329Z,79.79
2018-07-30T03:37:48.394Z,80.94
2018-07-30T03:38:48.469Z,81.81
2018-07-30T03:39:48.533Z,80.94
2018-07-30T03:40:48.593Z,81.81
2018-07-30T03:41:48.661Z,82.10
2018-07-30T03:42:48.729Z,83.26
2018-07-30T03:43:48.846Z,82.01
2018-07-30T03:44:48.868Z,84.03
2018-07-30T03:45:48.934Z,83.16
2018-07-30T03:46:48.994Z,84.22
2018-07-30T03:47:49.067Z,85.14
2018-07-30T03:48:49.234Z,83.03
2018-07-30T03:49:49.194Z,84.09
2018-07-30T03:50:49.261Z,84.47
2018-07-30T03:51:49.330Z,88.23
2018-07-30T03:52:49.394Z,85.14
2018-07-30T03:53:49.596Z,87.17
2018-07-30T03:54:49.557Z,85.14
2018-07-30T03:55:49.597Z,84.95
2018-07-30T03:56:49.662Z,88.04
2018-07-30T03:57:49.730Z,86.21
2018-07-30T03:58:49.806Z,87.94
2018-07-30T03:59:49.874Z,86.55
2018-07-30T04:00:49.926Z,88.42
2018-07-30T04:01:49.994Z,90.88
2018-07-30T04:02:50.062Z,89.53
2018-07-30T04:03:50.442Z,88.47
2018-07-30T04:04:50.198Z,88.85
2018-07-30T04:05:50.273Z,90.11
2018-07-30T04:06:50.330Z,89.15
2018-07-30T04:07:50.446Z,89.82
2018-07-30T04:08:50.462Z,91.55
2018-07-30T04:09:50.534Z,90.40
2018-07-30T04:10:50.594Z,88.85
2018-07-30T04:11:50.662Z,88.67
2018-07-30T04:12:50.751Z,91.36
2018-07-30T04:13:50.802Z,88.57
2018-07-30T04:14:50.870Z,87.51
2018-07-30T04:15:50.926Z,87.03
2018-07-30T04:16:50.994Z,90.11
2018-07-30T04:17:51.063Z,92.18
2018-07-30T04:18:51.278Z,89.58
2018-07-30T04:19:51.194Z,86.98
2018-07-30T04:20:51.258Z,85.82
2018-07-30T04:21:51.332Z,85.34
2018-07-30T04:22:51.395Z,84.56
2018-07-30T04:23:51.467Z,83.70
2018-07-30T04:24:51.538Z,83.45
2018-07-30T04:25:51.595Z,83.74
2018-07-30T04:26:51.660Z,84.52
2018-07-30T04:27:51.727Z,86.73
2018-07-30T04:28:51.805Z,89.62
2018-07-30T04:29:51.867Z,85.09
2018-07-30T04:30:51.936Z,84.22
2018-07-30T04:31:51.995Z,86.63
2018-07-30T04:32:52.059Z,84.32
2018-07-30T04:33:52.139Z,83.74
2018-07-30T04:34:52.196Z,83.16
2018-07-30T04:35:52.263Z,82.10
2018-07-30T04:36:52.326Z,82.68
2018-07-30T04:37:52.390Z,82.24
2018-07-30T04:38:52.466Z,82.59
2018-07-30T04:39:52.538Z,85.33
2018-07-30T04:40:52.595Z,84.17
2018-07-30T04:41:52.659Z,88.22
2018-07-30T04:42:52.727Z,85.23
2018-07-30T04:43:52.843Z,83.01
2018-07-30T04:44:52.867Z,84.65
2018-07-30T04:45:52.927Z,86.39
2018-07-30T04:46:52.995Z,87.74
2018-07-30T04:47:53.062Z,83.01
2018-07-30T04:48:53.151Z,82.05
2018-07-30T04:49:53.195Z,80.99
2018-07-30T04:50:53.263Z,80.79
2018-07-30T04:51:53.328Z,79.77
2018-07-30T04:52:53.408Z,79.58
2018-07-30T04:53:53.467Z,79.00
2018-07-30T04:54:53.535Z,78.81
2018-07-30T04:55:53.615Z,78.94
2018-07-30T04:56:53.708Z,76.92
2018-07-30T04:57:53.732Z,75.95
2018-07-30T04:58:53.804Z,74.51
2018-07-30T04:59:53.896Z,73.93
2018-07-30T05:00:53.932Z,73.83
2018-07-30T05:01:53.996Z,74.02
2018-07-30T05:02:54.064Z,73.63
2018-07-30T05:03:54.306Z,74.41
2018-07-30T05:04:54.201Z,73.73
2018-07-30T05:05:54.264Z,72.58
2018-07-30T05:06:54.333Z,72.96
2018-07-30T05:07:54.404Z,73.25
2018-07-30T05:08:54.472Z,72.38
2018-07-30T05:09:54.541Z,72.86
2018-07-30T05:10:54.605Z,73.35
2018-07-30T05:11:54.665Z,73.35
2018-07-30T05:12:54.741Z,73.44
2018-07-30T05:13:54.809Z,74.41
2018-07-30T05:14:55.729Z,73.73
2018-07-30T05:15:54.945Z,73.54
2018-07-30T05:16:55.005Z,73.44
2018-07-30T05:17:55.072Z,73.25
2018-07-30T05:18:55.281Z,72.77
2018-07-30T05:19:55.208Z,72.67
2018-07-30T05:20:55.276Z,72.58
2018-07-30T05:21:55.341Z,73.93
2018-07-30T05:22:55.409Z,73.83
2018-07-30T05:23:55.481Z,73.35
2018-07-30T05:24:55.577Z,72.58
2018-07-30T05:25:55.609Z,73.25
2018-07-30T05:26:55.673Z,72.96
2018-07-30T05:27:55.744Z,73.54
2018-07-30T05:28:55.820Z,73.44
2018-07-30T05:29:55.882Z,73.15
2018-07-30T05:30:55.941Z,73.54
2018-07-30T05:31:56.010Z,72.67
2018-07-30T05:32:56.078Z,72.77
2018-07-30T05:33:56.157Z,72.77
2018-07-30T05:34:56.213Z,73.06
2018-07-30T05:35:56.277Z,73.63
2018-07-30T05:36:56.345Z,72.48
2018-07-30T05:37:56.415Z,71.80
2018-07-30T05:38:56.486Z,71.61
2018-07-30T05:39:56.554Z,71.64
2018-07-30T05:40:56.614Z,71.64
2018-07-30T05:41:56.677Z,72.03
2018-07-30T05:42:56.747Z,71.64
2018-07-30T05:43:56.822Z,71.94
2018-07-30T05:44:56.886Z,71.61
2018-07-30T05:45:56.946Z,72.03
2018-07-30T05:46:57.018Z,71.74
2018-07-30T05:47:57.083Z,70.97
2018-07-30T05:48:57.166Z,70.68
2018-07-30T05:49:57.223Z,70.97
2018-07-30T05:50:57.283Z,70.48
2018-07-30T05:51:57.354Z,72.03
2018-07-30T05:52:57.419Z,72.61
2018-07-30T05:53:57.490Z,71.45
2018-07-30T05:54:57.558Z,70.97
2018-07-30T05:55:57.619Z,71.39
2018-07-30T05:56:57.687Z,70.32
2018-07-30T05:57:57.750Z,70.42
2018-07-30T05:58:57.839Z,70.81
2018-07-30T05:59:57.894Z,70.23
2018-07-30T06:00:57.954Z,69.84
2018-07-30T06:01:58.029Z,70.17
2018-07-30T06:02:58.087Z,70.17
2018-07-30T06:03:58.325Z,70.07
2018-07-30T06:04:58.223Z,68.43
2018-07-30T06:05:58.295Z,69.59
2018-07-30T06:06:58.359Z,68.33
2018-07-30T06:07:58.431Z,68.08
2018-07-30T06:08:58.503Z,68.27
2018-07-30T06:09:58.567Z,67.49
2018-07-30T06:10:58.627Z,67.79
2018-07-30T06:11:58.695Z,67.88
2018-07-30T06:12:58.763Z,67.30
2018-07-30T06:13:58.835Z,67.49
2018-07-30T06:14:58.903Z,67.33
2018-07-30T06:15:58.963Z,66.85
2018-07-30T06:16:59.031Z,66.17
2018-07-30T06:17:59.099Z,66.66
2018-07-30T06:18:59.183Z,66.30
2018-07-30T06:19:59.239Z,66.30
2018-07-30T06:20:59.336Z,64.27
2018-07-30T06:21:59.369Z,64.17
2018-07-30T06:22:59.438Z,63.72
2018-07-30T06:23:59.511Z,63.34
2018-07-30T06:24:59.583Z,63.34
2018-07-30T06:25:59.643Z,63.14
2018-07-30T06:26:59.707Z,62.20
2018-07-30T06:27:59.775Z,61.91
2018-07-30T06:28:59.852Z,61.75
2018-07-30T06:29:59.924Z,60.88
2018-07-30T06:30:59.981Z,60.58
2018-07-30T06:32:00.049Z,61.78
2018-07-30T06:33:00.116Z,61.88
2018-07-30T06:34:00.291Z,59.97
2018-07-30T06:35:00.256Z,60.74
2018-07-30T06:36:00.332Z,59.22
2018-07-30T06:37:00.388Z,57.86
2018-07-30T06:38:00.464Z,58.15
2018-07-30T06:39:00.536Z,57.96
2018-07-30T06:40:00.604Z,56.43
2018-07-30T06:41:00.664Z,56.62
2018-07-30T06:42:00.738Z,57.01
2018-07-30T06:43:00.804Z,56.24
2018-07-30T06:44:00.879Z,55.75
2018-07-30T06:45:00.949Z,56.14
2018-07-30T06:46:01.012Z,55.55
2018-07-30T06:47:01.080Z,56.65
2018-07-30T06:48:01.182Z,56.36
2018-07-30T06:49:01.241Z,55.98
2018-07-30T06:50:01.288Z,55.88
2018-07-30T06:51:01.360Z,57.01
2018-07-30T06:52:01.432Z,56.52
2018-07-30T06:53:01.500Z,56.72
2018-07-30T06:54:01.577Z,56.82
2018-07-30T06:55:01.644Z,56.04
2018-07-30T06:56:01.709Z,56.65
2018-07-30T06:57:01.778Z,55.68
2018-07-30T06:58:01.849Z,55.98
2018-07-30T06:59:01.925Z,57.14
2018-07-30T07:00:01.993Z,56.56
2018-07-30T07:01:02.102Z,55.32
2018-07-30T07:02:02.179Z,55.58
2018-07-30T07:03:02.199Z,55.71
2018-07-30T07:04:02.281Z,55.22
2018-07-30T07:05:02.337Z,54.83
2018-07-30T07:06:02.405Z,54.83
2018-07-30T07:07:02.483Z,54.74
2018-07-30T07:08:02.545Z,55.41
2018-07-30T07:09:02.626Z,54.44
2018-07-30T07:10:02.693Z,54.28
2018-07-30T07:11:02.758Z,54.76
2018-07-30T07:12:02.829Z,54.47
2018-07-30T07:13:02.897Z,53.89
2018-07-30T07:14:02.978Z,53.72
2018-07-30T07:15:03.046Z,54.33
2018-07-30T07:16:03.111Z,53.16
2018-07-30T07:17:03.272Z,51.82
2018-07-30T07:18:03.250Z,52.14
2018-07-30T07:19:03.329Z,50.82
2018-07-30T07:20:03.549Z,51.51
2018-07-30T07:21:03.466Z,50.12
2018-07-30T07:22:03.581Z,50.60
2018-07-30T07:23:03.605Z,49.44
2018-07-30T07:24:03.681Z,50.21
2018-07-30T07:25:03.758Z,50.02
2018-07-30T07:26:03.835Z,50.14
2018-07-30T07:27:03.984Z,48.34
2018-07-30T07:28:04.042Z,49.85
2018-07-30T07:29:04.038Z,48.36
2018-07-30T07:30:04.146Z,46.53
2018-07-30T07:31:04.186Z,46.14
2018-07-30T07:32:04.258Z,45.89
2018-07-30T07:33:04.334Z,44.32
2018-07-30T07:34:04.406Z,45.76
2018-07-30T07:35:04.641Z,47.04
2018-07-30T07:36:04.587Z,44.93
2018-07-30T07:37:04.634Z,44.24
2018-07-30T07:38:04.702Z,44.15
2018-07-30T07:39:04.780Z,44.17
2018-07-30T07:40:04.859Z,44.46
2018-07-30T07:41:04.948Z,44.17
2018-07-30T07:42:05.003Z,42.29
2018-07-30T07:43:05.079Z,44.23
2018-07-30T07:44:05.154Z,45.81
2018-07-30T07:45:05.330Z,43.92
2018-07-30T07:46:05.302Z,42.43
2018-07-30T07:47:05.374Z,43.12
2018-07-30T07:48:05.454Z,42.50
2018-07-30T07:49:05.530Z,42.33
2018-07-30T07:50:05.689Z,42.11
2018-07-30T07:51:05.732Z,42.21
2018-07-30T07:52:05.761Z,42.80
2018-07-30T07:53:05.830Z,44.27
2018-07-30T07:54:05.911Z,43.76
2018-07-30T07:55:05.990Z,43.19
2018-07-30T07:56:06.067Z,43.12
2018-07-30T07:57:06.139Z,42.82
2018-07-30T07:58:06.215Z,41.94
2018-07-30T07:59:06.287Z,41.94
2018-07-30T08:00:06.363Z,42.23
2018-07-30T08:01:06.463Z,42.13
2018-07-30T08:02:06.511Z,42.13
2018-07-30T08:03:06.587Z,43.99
2018-07-30T08:04:06.663Z,42.60
2018-07-30T08:05:06.822Z,42.21
2018-07-30T08:06:06.838Z,42.50
2018-07-30T08:07:06.895Z,42.97
2018-07-30T08:08:06.971Z,43.15
2018-07-30T08:09:07.040Z,44.03
2018-07-30T08:10:07.119Z,42.85
2018-07-30T08:11:07.516Z,43.44
2018-07-30T08:12:07.271Z,45.76
2018-07-30T08:13:07.339Z,44.79
2018-07-30T08:14:07.415Z,44.59
2018-07-30T08:15:07.487Z,45.08
2018-07-30T08:16:07.571Z,44.98
2018-07-30T08:17:07.647Z,45.20
2018-07-30T08:18:07.716Z,45.50
2018-07-30T08:19:07.792Z,43.52
2018-07-30T08:20:07.870Z,43.71
2018-07-30T08:21:07.947Z,43.91
2018-07-30T08:22:08.035Z,44.13
2018-07-30T08:23:08.091Z,43.09
2018-07-30T08:24:08.163Z,41.66
2018-07-30T08:25:08.235Z,42.03
2018-07-30T08:26:08.352Z,42.33
2018-07-30T08:27:08.396Z,43.31
2018-07-30T08:28:08.467Z,43.99
2018-07-30T08:29:08.603Z,43.90
2018-07-30T08:30:08.623Z,43.52
2018-07-30T08:31:08.699Z,42.62
2018-07-30T08:32:08.775Z,42.23
2018-07-30T08:33:08.895Z,42.25
2018-07-30T08:34:08.915Z,40.76
2018-07-30T08:35:08.988Z,42.03
2018-07-30T08:36:09.083Z,42.45
2018-07-30T08:37:09.143Z,41.17
2018-07-30T08:38:09.219Z,41.08
2018-07-30T08:39:09.296Z,42.45
2018-07-30T08:40:09.371Z,41.47
2018-07-30T08:41:09.452Z,41.96
2018-07-30T08:42:09.554Z,42.15
2018-07-30T08:43:09.591Z,42.84
2018-07-30T08:44:09.675Z,42.08
2018-07-30T08:45:09.750Z,42.27
2018-07-30T08:46:09.832Z,42.29
2018-07-30T08:47:09.910Z,40.01
2018-07-30T08:48:09.979Z,40.01
2018-07-30T08:49:10.052Z,41.29
2018-07-30T08:50:10.128Z,41.68
2018-07-30T08:51:10.356Z,41.00
2018-07-30T08:52:10.283Z,41.19
2018-07-30T08:53:10.356Z,42.21
2018-07-30T08:54:10.436Z,38.93
2018-07-30T08:55:10.510Z,38.36
2018-07-30T08:56:10.588Z,37.51
2018-07-30T08:57:10.988Z,36.55
2018-07-30T08:58:10.736Z,35.36
2018-07-30T08:59:10.812Z,35.08
2018-07-30T09:00:10.889Z,34.74
2018-07-30T09:01:10.968Z,33.49
2018-07-30T09:02:11.356Z,32.64
2018-07-30T09:03:11.124Z,32.03
2018-07-30T09:04:11.208Z,32.09
2018-07-30T09:05:11.280Z,33.15
2018-07-30T09:06:11.360Z,33.85
2018-07-30T09:07:11.486Z,33.37
2018-07-30T09:08:11.521Z,32.29
2018-07-30T09:09:11.592Z,31.91
2018-07-30T09:10:11.673Z,31.82
2018-07-30T09:11:11.753Z,32.52
2018-07-30T09:12:11.837Z,33.33
2018-07-30T09:13:11.915Z,31.43
2018-07-30T09:14:11.993Z,33.59
2018-07-30T09:15:12.073Z,33.16
2018-07-30T09:16:12.150Z,33.29
2018-07-30T09:17:12.298Z,32.78
2018-07-30T09:18:12.324Z,32.59
2018-07-30T09:19:12.385Z,32.18
2018-07-30T09:20:12.469Z,32.98
2018-07-30T09:21:12.545Z,32.03
2018-07-30T09:22:12.633Z,32.64
2018-07-30T09:23:12.717Z,31.35
2018-07-30T09:24:12.785Z,32.53
2018-07-30T09:25:12.861Z,30.65
2018-07-30T09:26:12.945Z,31.36
2018-07-30T09:27:13.036Z,30.64
2018-07-30T09:28:13.113Z,31.51
2018-07-30T09:29:13.186Z,32.21
2018-07-30T09:30:13.257Z,31.91
2018-07-30T09:31:13.338Z,31.90
2018-07-30T09:32:13.425Z,33.87
2018-07-30T09:33:13.534Z,32.47
2018-07-30T09:34:13.578Z,32.39
2018-07-30T09:35:13.653Z,32.16
2018-07-30T09:36:13.733Z,32.65
2018-07-30T09:37:13.822Z,32.77
2018-07-30T09:38:13.902Z,33.87
2018-07-30T09:39:14.032Z,31.91
2018-07-30T09:40:14.050Z,31.53
2018-07-30T09:41:14.130Z,32.83
2018-07-30T09:42:14.238Z,31.74
2018-07-30T09:43:14.289Z,30.67
2018-07-30T09:44:14.366Z,29.36
2018-07-30T09:45:14.446Z,30.74
2018-07-30T09:46:14.526Z,30.44
2018-07-30T09:47:14.610Z,30.41
2018-07-30T09:48:14.689Z,30.40
2018-07-30T09:49:14.766Z,30.89
2018-07-30T09:50:14.838Z,32.56
2018-07-30T09:51:14.918Z,32.35
2018-07-30T09:52:15.002Z,32.28
2018-07-30T09:53:15.082Z,32.49
2018-07-30T09:54:15.153Z,33.95
2018-07-30T09:55:15.234Z,33.25
2018-07-30T09:56:15.404Z,32.65
2018-07-30T09:57:15.794Z,32.77
2018-07-30T09:58:15.466Z,32.56
2018-07-30T09:59:15.546Z,32.44
2018-07-30T10:00:15.622Z,32.04
2018-07-30T10:01:15.698Z,32.24
2018-07-30T10:02:15.778Z,32.65
2018-07-30T10:03:16.103Z,32.06
2018-07-30T10:04:15.938Z,32.85
2018-07-30T10:05:16.019Z,32.26
2018-07-30T10:06:16.154Z,32.24
2018-07-30T10:07:16.167Z,32.54
2018-07-30T10:08:16.251Z,33.44
2018-07-30T10:09:16.340Z,32.75
2018-07-30T10:10:16.405Z,31.78
2018-07-30T10:11:16.699Z,31.98
2018-07-30T10:12:16.559Z,32.37
2018-07-30T10:13:16.655Z,32.59
2018-07-30T10:14:16.715Z,31.79
2018-07-30T10:15:16.815Z,31.76
2018-07-30T10:16:16.871Z,32.16
2018-07-30T10:17:16.940Z,33.25
2018-07-30T10:18:17.039Z,34.03
2018-07-30T10:19:17.103Z,33.23
2018-07-30T10:20:17.171Z,33.53
2018-07-30T10:21:17.252Z,34.12
2018-07-30T10:22:17.327Z,34.12
2018-07-30T10:23:17.717Z,34.77
2018-07-30T10:24:17.488Z,35.36
2018-07-30T10:25:17.560Z,34.18
2018-07-30T10:26:17.635Z,35.28
2018-07-30T10:27:17.751Z,34.79
2018-07-30T10:28:17.795Z,34.20
2018-07-30T10:29:17.890Z,33.79
2018-07-30T10:30:17.944Z,34.99
2018-07-30T10:31:18.024Z,32.93
2018-07-30T10:32:18.098Z,32.32
2018-07-30T10:33:18.284Z,32.03
2018-07-30T10:34:18.251Z,33.31
2018-07-30T10:35:18.324Z,32.70
2018-07-30T10:36:18.400Z,33.31
2018-07-30T10:37:18.476Z,33.13
2018-07-30T10:38:18.725Z,34.01
2018-07-30T10:39:18.636Z,33.92
2018-07-30T10:40:18.712Z,33.11
2018-07-30T10:41:18.780Z,33.31
2018-07-30T10:42:18.858Z,33.10
2018-07-30T10:43:18.951Z,35.27
2018-07-30T10:44:19.017Z,34.95
2018-07-30T10:45:19.085Z,34.54
2018-07-30T10:46:19.210Z,34.05
2018-07-30T10:47:19.237Z,33.95
2018-07-30T10:48:19.478Z,33.95
2018-07-30T10:49:19.405Z,33.56
2018-07-30T10:50:19.468Z,33.48
2018-07-30T10:51:19.548Z,34.75
2018-07-30T10:52:19.617Z,34.08
2018-07-30T10:53:19.709Z,33.20
2018-07-30T10:54:19.769Z,32.62
2018-07-30T10:55:19.865Z,34.97
2018-07-30T10:56:19.925Z,34.28
2018-07-30T10:57:19.993Z,34.20
2018-07-30T10:58:20.113Z,33.51
2018-07-30T10:59:20.145Z,33.11
2018-07-30T11:00:20.225Z,33.22
2018-07-30T11:01:20.297Z,33.72
2018-07-30T11:02:20.370Z,32.84
2018-07-30T11:03:20.453Z,32.52
2018-07-30T11:04:20.535Z,32.60
2018-07-30T11:05:20.601Z,33.65
2018-07-30T11:06:20.673Z,33.46
2018-07-30T11:07:20.749Z,33.75
2018-07-30T11:08:20.826Z,34.15
2018-07-30T11:09:20.905Z,33.46
2018-07-30T11:10:20.974Z,34.86
2018-07-30T11:11:21.049Z,33.48
2018-07-30T11:12:21.125Z,33.89
2018-07-30T11:13:21.357Z,32.69
2018-07-30T11:14:21.274Z,32.69
2018-07-30T11:15:21.350Z,33.08
2018-07-30T11:16:21.430Z,33.18
2018-07-30T11:17:21.507Z,32.60
2018-07-30T11:18:21.581Z,33.69
2018-07-30T11:19:21.657Z,32.90
2018-07-30T11:20:21.725Z,32.11
2018-07-30T11:21:21.801Z,32.41
2018-07-30T11:22:21.881Z,32.59
2018-07-30T11:23:21.965Z,33.56
2018-07-30T11:24:22.034Z,33.64
2018-07-30T11:25:22.117Z,33.74
2018-07-30T11:26:22.177Z,33.84
2018-07-30T11:27:22.253Z,34.61
2018-07-30T11:28:22.569Z,34.59
2018-07-30T11:29:22.402Z,33.79
2018-07-30T11:30:22.478Z,35.06
2018-07-30T11:31:22.553Z,35.18
2018-07-30T11:32:22.634Z,35.08
2018-07-30T11:33:22.713Z,35.59
2018-07-30T11:34:22.786Z,33.72
2018-07-30T11:35:22.854Z,35.59
2018-07-30T11:36:22.930Z,33.74
2018-07-30T11:37:23.006Z,33.91
2018-07-30T11:38:23.234Z,35.18
2018-07-30T11:39:23.158Z,35.20
2018-07-30T11:40:23.230Z,35.08
2018-07-30T11:41:23.302Z,36.85
2018-07-30T11:42:23.378Z,36.15
2018-07-30T11:43:23.462Z,35.46
2018-07-30T11:44:23.538Z,35.00
2018-07-30T11:45:23.626Z,35.11
2018-07-30T11:46:23.679Z,35.02
2018-07-30T11:47:23.754Z,34.82
2018-07-30T11:48:23.899Z,35.31
2018-07-30T11:49:23.910Z,35.21
2018-07-30T11:50:23.978Z,35.31
2018-07-30T11:51:24.055Z,34.13
2018-07-30T11:52:24.131Z,35.21
2018-07-30T11:53:24.380Z,34.72
2018-07-30T11:54:24.408Z,33.94
2018-07-30T11:55:24.355Z,34.63
2018-07-30T11:56:24.439Z,33.54
2018-07-30T11:57:24.508Z,34.82
2018-07-30T11:58:24.587Z,34.03
2018-07-30T11:59:24.671Z,33.82
2018-07-30T12:00:24.731Z,34.22
2018-07-30T12:01:24.848Z,34.53
2018-07-30T12:02:24.887Z,33.36
2018-07-30T12:03:24.964Z,32.87
2018-07-30T12:04:25.036Z,34.97
2018-07-30T12:05:25.104Z,33.59
2018-07-30T12:06:25.179Z,33.70
2018-07-30T12:07:25.255Z,32.32
2018-07-30T12:08:25.487Z,32.62
2018-07-30T12:09:25.408Z,33.11
2018-07-30T12:10:25.479Z,33.22
2018-07-30T12:11:25.555Z,33.11
2018-07-30T12:12:25.636Z,31.93
2018-07-30T12:13:25.734Z,31.24
2018-07-30T12:14:25.795Z,31.54
2018-07-30T12:15:25.860Z,31.44
2018-07-30T12:16:25.959Z,31.04
2018-07-30T12:17:26.016Z,31.83
2018-07-30T12:18:26.200Z,31.54
2018-07-30T12:19:26.160Z,31.93
2018-07-30T12:20:26.237Z,31.42
2018-07-30T12:21:26.316Z,31.31
2018-07-30T12:22:26.388Z,31.82
2018-07-30T12:23:26.472Z,31.82
2018-07-30T12:24:26.552Z,31.23
2018-07-30T12:25:26.612Z,31.72
2018-07-30T12:26:26.689Z,31.92
2018-07-30T12:27:26.765Z,32.10
2018-07-30T12:28:26.848Z,32.20
2018-07-30T12:29:26.924Z,32.21
2018-07-30T12:30:27.043Z,32.00
2018-07-30T12:31:27.068Z,32.10
2018-07-30T12:32:27.140Z,32.59
2018-07-30T12:33:27.217Z,32.80
2018-07-30T12:34:27.308Z,33.41
2018-07-30T12:35:27.369Z,31.85
2018-07-30T12:36:27.448Z,31.26
2018-07-30T12:37:27.525Z,31.17
2018-07-30T12:38:27.593Z,31.78
2018-07-30T12:39:27.676Z,30.78
2018-07-30T12:40:27.753Z,30.69
2018-07-30T12:41:27.824Z,30.40
2018-07-30T12:42:27.897Z,29.82
2018-07-30T12:43:27.973Z,30.38
2018-07-30T12:44:28.057Z,31.29
2018-07-30T12:45:28.130Z,30.99
2018-07-30T12:46:28.201Z,31.59
2018-07-30T12:47:28.269Z,30.19
2018-07-30T12:48:28.349Z,30.58
2018-07-30T12:49:28.433Z,33.64
2018-07-30T12:50:28.595Z,31.27
2018-07-30T12:51:28.577Z,31.57
2018-07-30T12:52:28.654Z,31.57
2018-07-30T12:53:28.733Z,31.47